UAL1295 KLAX-PHLI
Flight info
| Callsign | UAL1295 |
|---|---|
| Flight time | N/A |
| Altitude | 34000 |
| Route | SUMMR2 DINTY GALIP CUNDU/N0461F360 BILLO R464 BITTA NAPUA |
| Aircraft | B38M/M-SDE1FGHILORVWXY/HB1 |
Departure
| Time | 2026-04-21 00:13 |
|---|---|
| Airport | Los Angeles International Airport (KLAX) |
Arrival
| Time | N/A |
|---|---|
| Airport | Lihue Airport (PHLI) |
| Time | Latitude | Longitude | Altitude | Speed | Heading |
|---|---|---|---|---|---|
| 2026-04-20 23:50 | 33.94100 | -118.39891 | 128 ft | 0 kts | 305° |
| 2026-04-21 00:03 | 33.94095 | -118.39881 | 128 ft | 3 kts | 300° |
| 2026-04-21 00:03 | 33.94087 | -118.39860 | 128 ft | 3 kts | 274° |
| 2026-04-21 00:04 | 33.94088 | -118.39846 | 128 ft | 3 kts | 245° |
| 2026-04-21 00:04 | 33.94105 | -118.39830 | 128 ft | 3 kts | 185° |
| 2026-04-21 00:04 | 33.94113 | -118.39829 | 127 ft | 1 kts | 173° |
| 2026-04-21 00:04 | 33.94114 | -118.39830 | 123 ft | 2 kts | 172° |
| 2026-04-21 00:06 | 33.94112 | -118.39829 | 128 ft | 1 kts | 172° |
| 2026-04-21 00:07 | 33.94100 | -118.39827 | 128 ft | 3 kts | 173° |
| 2026-04-21 00:07 | 33.94064 | -118.39826 | 128 ft | 9 kts | 180° |
| 2026-04-21 00:07 | 33.93979 | -118.39859 | 126 ft | 19 kts | 238° |
| 2026-04-21 00:07 | 33.93955 | -118.40052 | 126 ft | 27 kts | 263° |
| 2026-04-21 00:08 | 33.93931 | -118.40294 | 126 ft | 30 kts | 263° |
| 2026-04-21 00:08 | 33.93905 | -118.40543 | 127 ft | 30 kts | 263° |
| 2026-04-21 00:08 | 33.93880 | -118.40792 | 124 ft | 30 kts | 263° |
| 2026-04-21 00:08 | 33.93856 | -118.41030 | 127 ft | 22 kts | 263° |
| 2026-04-21 00:09 | 33.93912 | -118.41169 | 127 ft | 22 kts | 351° |
| 2026-04-21 00:09 | 33.94064 | -118.41193 | 128 ft | 22 kts | 353° |
| 2026-04-21 00:09 | 33.94272 | -118.41223 | 126 ft | 23 kts | 353° |
| 2026-04-21 00:09 | 33.94381 | -118.41240 | 128 ft | 24 kts | 353° |
| 2026-04-21 00:10 | 33.94546 | -118.41263 | 132 ft | 24 kts | 352° |
| 2026-04-21 00:10 | 33.94712 | -118.41288 | 128 ft | 23 kts | 353° |
| 2026-04-21 00:10 | 33.94806 | -118.41175 | 128 ft | 23 kts | 83° |
| 2026-04-21 00:10 | 33.94827 | -118.40983 | 124 ft | 24 kts | 83° |
| 2026-04-21 00:11 | 33.94847 | -118.40783 | 128 ft | 25 kts | 83° |
| 2026-04-21 00:11 | 33.94869 | -118.40577 | 126 ft | 23 kts | 82° |
| 2026-04-21 00:11 | 33.94890 | -118.40380 | 127 ft | 24 kts | 83° |
| 2026-04-21 00:11 | 33.94911 | -118.40171 | 128 ft | 26 kts | 83° |
| 2026-04-21 00:12 | 33.94934 | -118.39971 | 124 ft | 20 kts | 73° |
| 2026-04-21 00:12 | 33.94980 | -118.39915 | 128 ft | 10 kts | 17° |
| 2026-04-21 00:12 | 33.95043 | -118.39947 | 126 ft | 7 kts | 278° |
| 2026-04-21 00:12 | 33.95035 | -118.40029 | 125 ft | 25 kts | 262° |
| 2026-04-21 00:13 | 33.94980 | -118.40564 | 128 ft | 102 kts | 263° |
| 2026-04-21 00:13 | 33.94861 | -118.41688 | 126 ft | 166 kts | 263° |
| 2026-04-21 00:13 | 33.94698 | -118.43210 | 523 ft | 193 kts | 263° |
| 2026-04-21 00:13 | 33.94531 | -118.44807 | 1617 ft | 187 kts | 263° |
| 2026-04-21 00:14 | 33.94389 | -118.46401 | 2429 ft | 199 kts | 266° |
| 2026-04-21 00:14 | 33.94321 | -118.48146 | 2997 ft | 218 kts | 268° |
| 2026-04-21 00:14 | 33.94252 | -118.50055 | 3566 ft | 238 kts | 267° |
| 2026-04-21 00:14 | 33.94107 | -118.52115 | 4194 ft | 255 kts | 265° |
| 2026-04-21 00:15 | 33.93940 | -118.54275 | 4851 ft | 261 kts | 265° |
| 2026-04-21 00:15 | 33.93772 | -118.56463 | 5316 ft | 262 kts | 265° |
| 2026-04-21 00:15 | 33.93607 | -118.58631 | 6357 ft | 261 kts | 265° |
| 2026-04-21 00:15 | 33.93440 | -118.60829 | 7242 ft | 265 kts | 265° |
| 2026-04-21 00:16 | 33.93271 | -118.63051 | 8102 ft | 269 kts | 265° |
| 2026-04-21 00:16 | 33.93097 | -118.65312 | 8925 ft | 273 kts | 265° |
| 2026-04-21 00:16 | 33.92919 | -118.67603 | 9748 ft | 277 kts | 266° |
| 2026-04-21 00:16 | 33.92739 | -118.69922 | 10517 ft | 283 kts | 266° |
| 2026-04-21 00:17 | 33.92551 | -118.72352 | 10904 ft | 302 kts | 266° |
| 2026-04-21 00:17 | 33.92349 | -118.74953 | 11200 ft | 322 kts | 266° |
| 2026-04-21 00:17 | 33.92132 | -118.77714 | 11563 ft | 338 kts | 266° |
| 2026-04-21 00:17 | 33.91907 | -118.80578 | 11949 ft | 346 kts | 266° |
| 2026-04-21 00:18 | 33.91721 | -118.83465 | 12133 ft | 346 kts | 273° |
| 2026-04-21 00:18 | 33.91831 | -118.86346 | 12875 ft | 345 kts | 274° |
| 2026-04-21 00:18 | 33.91922 | -118.89250 | 13554 ft | 348 kts | 274° |
| 2026-04-21 00:18 | 33.92001 | -118.92172 | 14244 ft | 351 kts | 274° |
| 2026-04-21 00:19 | 33.92071 | -118.95115 | 14905 ft | 353 kts | 274° |
| 2026-04-21 00:19 | 33.92138 | -118.98083 | 15518 ft | 356 kts | 274° |
| 2026-04-21 00:19 | 33.92415 | -119.01039 | 16125 ft | 355 kts | 288° |
| 2026-04-21 00:19 | 33.93448 | -119.03727 | 16736 ft | 356 kts | 301° |
| 2026-04-21 00:20 | 33.94713 | -119.06300 | 17283 ft | 358 kts | 301° |
| 2026-04-21 00:20 | 33.96004 | -119.08877 | 17854 ft | 361 kts | 301° |
| 2026-04-21 00:20 | 33.97316 | -119.11460 | 18450 ft | 362 kts | 302° |
| 2026-04-21 00:20 | 33.98638 | -119.14046 | 18991 ft | 364 kts | 302° |
| 2026-04-21 00:21 | 33.99973 | -119.16643 | 19543 ft | 365 kts | 302° |
| 2026-04-21 00:21 | 34.01620 | -119.18969 | 20050 ft | 368 kts | 319° |
| 2026-04-21 00:21 | 34.03675 | -119.20834 | 20486 ft | 373 kts | 322° |
| 2026-04-21 00:21 | 34.05751 | -119.22669 | 20944 ft | 375 kts | 322° |
| 2026-04-21 00:22 | 34.07870 | -119.24519 | 21416 ft | 377 kts | 322° |
| 2026-04-21 00:22 | 34.10010 | -119.26372 | 21875 ft | 379 kts | 322° |
| 2026-04-21 00:22 | 34.12157 | -119.28226 | 22349 ft | 381 kts | 322° |
| 2026-04-21 00:22 | 34.14321 | -119.30090 | 22791 ft | 383 kts | 322° |
| 2026-04-21 00:23 | 34.16492 | -119.31960 | 23237 ft | 384 kts | 321° |
| 2026-04-21 00:23 | 34.18671 | -119.33839 | 23672 ft | 386 kts | 321° |
| 2026-04-21 00:23 | 34.20859 | -119.35726 | 24054 ft | 388 kts | 321° |
| 2026-04-21 00:23 | 34.23062 | -119.37627 | 24447 ft | 390 kts | 321° |
| 2026-04-21 00:24 | 34.25277 | -119.39540 | 24794 ft | 393 kts | 321° |
| 2026-04-21 00:24 | 34.27507 | -119.41468 | 25155 ft | 395 kts | 321° |
| 2026-04-21 00:24 | 34.29750 | -119.43408 | 25497 ft | 398 kts | 321° |
| 2026-04-21 00:24 | 34.32008 | -119.45361 | 25823 ft | 400 kts | 321° |
| 2026-04-21 00:25 | 34.34274 | -119.47324 | 26161 ft | 402 kts | 320° |
| 2026-04-21 00:25 | 34.36555 | -119.49309 | 26472 ft | 404 kts | 318° |
| 2026-04-21 00:25 | 34.38519 | -119.51701 | 26728 ft | 401 kts | 303° |
| 2026-04-21 00:25 | 34.39792 | -119.54683 | 27023 ft | 400 kts | 288° |
| 2026-04-21 00:26 | 34.40330 | -119.58000 | 27289 ft | 405 kts | 275° |
| 2026-04-21 00:26 | 34.40318 | -119.61410 | 27648 ft | 406 kts | 270° |
| 2026-04-21 00:26 | 34.40196 | -119.64840 | 27943 ft | 409 kts | 269° |
| 2026-04-21 00:26 | 34.40015 | -119.68278 | 28286 ft | 410 kts | 268° |
| 2026-04-21 00:27 | 34.39804 | -119.71733 | 28590 ft | 412 kts | 268° |
| 2026-04-21 00:27 | 34.39577 | -119.75183 | 28970 ft | 410 kts | 267° |
| 2026-04-21 00:27 | 34.39340 | -119.78616 | 29397 ft | 408 kts | 267° |
| 2026-04-21 00:27 | 34.39099 | -119.82036 | 29811 ft | 406 kts | 267° |
| 2026-04-21 00:28 | 34.38858 | -119.85435 | 30237 ft | 404 kts | 267° |
| 2026-04-21 00:28 | 34.38617 | -119.88814 | 30614 ft | 403 kts | 267° |
| 2026-04-21 00:28 | 34.38375 | -119.92182 | 30982 ft | 401 kts | 266° |
| 2026-04-21 00:28 | 34.38133 | -119.95540 | 31360 ft | 400 kts | 266° |
| 2026-04-21 00:29 | 34.37892 | -119.98885 | 31654 ft | 399 kts | 266° |
| 2026-04-21 00:29 | 34.37649 | -120.02230 | 32000 ft | 398 kts | 266° |
| 2026-04-21 00:29 | 34.37406 | -120.05561 | 32309 ft | 397 kts | 266° |
| 2026-04-21 00:29 | 34.37164 | -120.08886 | 32630 ft | 396 kts | 266° |
| 2026-04-21 00:30 | 34.36920 | -120.12206 | 32932 ft | 395 kts | 266° |
| 2026-04-21 00:30 | 34.36676 | -120.15525 | 33229 ft | 395 kts | 266° |
| 2026-04-21 00:30 | 34.36434 | -120.18785 | 33494 ft | 395 kts | 266° |
| 2026-04-21 00:30 | 34.36189 | -120.22092 | 33747 ft | 394 kts | 266° |
| 2026-04-21 00:31 | 34.35943 | -120.25398 | 34032 ft | 393 kts | 266° |
| 2026-04-21 00:31 | 34.35696 | -120.28698 | 34178 ft | 394 kts | 266° |
| 2026-04-21 00:31 | 34.35448 | -120.32003 | 34170 ft | 393 kts | 266° |
| 2026-04-21 00:32 | 34.34951 | -120.38595 | 34183 ft | 394 kts | 266° |
| 2026-04-21 00:32 | 34.34412 | -120.45201 | 34176 ft | 395 kts | 261° |
| 2026-04-21 00:32 | 34.33522 | -120.48356 | 34185 ft | 399 kts | 249° |
| 2026-04-21 00:33 | 34.32359 | -120.51421 | 34162 ft | 402 kts | 250° |
| 2026-04-21 00:33 | 34.30006 | -120.57566 | 34197 ft | 404 kts | 249° |
| 2026-04-21 00:34 | 34.27590 | -120.63715 | 34186 ft | 404 kts | 249° |
| 2026-04-21 00:34 | 34.25161 | -120.69851 | 34183 ft | 405 kts | 249° |
| 2026-04-21 00:35 | 34.22728 | -120.75985 | 34183 ft | 405 kts | 249° |
| 2026-04-21 00:35 | 34.20285 | -120.82130 | 34184 ft | 406 kts | 249° |
| 2026-04-21 00:36 | 34.17834 | -120.88282 | 34184 ft | 406 kts | 249° |
| 2026-04-21 00:36 | 34.15378 | -120.94436 | 34183 ft | 407 kts | 249° |
| 2026-04-21 00:37 | 34.12920 | -121.00588 | 34183 ft | 407 kts | 249° |
| 2026-04-21 00:37 | 34.10472 | -121.06700 | 34190 ft | 407 kts | 249° |
| 2026-04-21 00:38 | 34.08006 | -121.12847 | 34193 ft | 407 kts | 249° |
| 2026-04-21 00:38 | 34.05541 | -121.18979 | 34185 ft | 406 kts | 249° |
| 2026-04-21 00:39 | 34.03075 | -121.25104 | 34187 ft | 406 kts | 249° |
| 2026-04-21 00:39 | 34.00610 | -121.31217 | 34183 ft | 405 kts | 249° |
| 2026-04-21 00:40 | 33.98149 | -121.37303 | 34187 ft | 401 kts | 249° |
| 2026-04-21 00:40 | 33.95715 | -121.43319 | 34185 ft | 399 kts | 249° |
| 2026-04-21 00:41 | 33.93280 | -121.49323 | 34190 ft | 399 kts | 249° |
| 2026-04-21 00:41 | 33.90842 | -121.55324 | 34192 ft | 400 kts | 249° |
| 2026-04-21 00:42 | 33.88390 | -121.61348 | 34193 ft | 400 kts | 249° |
| 2026-04-21 00:42 | 33.85940 | -121.67358 | 34191 ft | 400 kts | 249° |
| 2026-04-21 00:43 | 33.83485 | -121.73369 | 34193 ft | 401 kts | 249° |
| 2026-04-21 00:43 | 33.81024 | -121.79384 | 34195 ft | 400 kts | 249° |
| 2026-04-21 00:44 | 33.78580 | -121.85347 | 34192 ft | 400 kts | 249° |
| 2026-04-21 00:44 | 33.76119 | -121.91340 | 34193 ft | 400 kts | 249° |
| 2026-04-21 00:45 | 33.72419 | -122.00332 | 34183 ft | 400 kts | 249° |
| 2026-04-21 00:45 | 33.69949 | -122.06322 | 34184 ft | 400 kts | 249° |
| 2026-04-21 00:46 | 33.67472 | -122.12318 | 34183 ft | 401 kts | 249° |
| 2026-04-21 00:46 | 33.64989 | -122.18318 | 34187 ft | 401 kts | 249° |
| 2026-04-21 00:47 | 33.62506 | -122.24307 | 34183 ft | 401 kts | 249° |
| 2026-04-21 00:47 | 33.60017 | -122.30302 | 34182 ft | 402 kts | 249° |
| 2026-04-21 00:48 | 33.57521 | -122.36302 | 34182 ft | 402 kts | 249° |
| 2026-04-21 00:48 | 33.55021 | -122.42306 | 34185 ft | 403 kts | 249° |
| 2026-04-21 00:49 | 33.52939 | -122.47296 | 34181 ft | 403 kts | 249° |
| 2026-04-21 00:49 | 33.50007 | -122.54326 | 34184 ft | 403 kts | 250° |
| 2026-04-21 00:50 | 33.49069 | -122.59624 | 34185 ft | 390 kts | 275° |
| 2026-04-21 00:50 | 33.49928 | -122.66053 | 34176 ft | 392 kts | 281° |
| 2026-04-21 00:51 | 33.51072 | -122.72450 | 34180 ft | 393 kts | 282° |
| 2026-04-21 00:51 | 33.52289 | -122.78840 | 34184 ft | 394 kts | 283° |
| 2026-04-21 00:52 | 33.53525 | -122.85235 | 34182 ft | 394 kts | 283° |
| 2026-04-21 00:52 | 33.54763 | -122.91630 | 34182 ft | 394 kts | 283° |
| 2026-04-21 00:53 | 33.56000 | -122.98042 | 34184 ft | 395 kts | 283° |
| 2026-04-21 00:53 | 33.57234 | -123.04457 | 34183 ft | 395 kts | 283° |
| 2026-04-21 00:54 | 33.58466 | -123.10877 | 34184 ft | 395 kts | 283° |
| 2026-04-21 00:54 | 33.59696 | -123.17306 | 34184 ft | 396 kts | 283° |
| 2026-04-21 00:55 | 33.60925 | -123.23752 | 34183 ft | 396 kts | 283° |
| 2026-04-21 00:55 | 33.62141 | -123.30150 | 34182 ft | 396 kts | 283° |
| 2026-04-21 00:56 | 33.63362 | -123.36590 | 34188 ft | 396 kts | 283° |
| 2026-04-21 00:56 | 33.64581 | -123.43041 | 34191 ft | 396 kts | 283° |
| 2026-04-21 00:57 | 33.65797 | -123.49494 | 34191 ft | 396 kts | 283° |
| 2026-04-21 00:57 | 33.67010 | -123.55952 | 34193 ft | 396 kts | 283° |
| 2026-04-21 00:58 | 33.68219 | -123.62408 | 34192 ft | 396 kts | 284° |
| 2026-04-21 00:58 | 33.69426 | -123.68872 | 34193 ft | 396 kts | 284° |
| 2026-04-21 00:59 | 33.70627 | -123.75325 | 34192 ft | 396 kts | 284° |
| 2026-04-21 00:59 | 33.71824 | -123.81778 | 34193 ft | 396 kts | 284° |
| 2026-04-21 01:00 | 33.73019 | -123.88240 | 34192 ft | 396 kts | 284° |
| 2026-04-21 01:00 | 33.74211 | -123.94704 | 34192 ft | 396 kts | 284° |
| 2026-04-21 01:01 | 33.75400 | -124.01172 | 34194 ft | 396 kts | 284° |
| 2026-04-21 01:01 | 33.76584 | -124.07631 | 34206 ft | 396 kts | 284° |
| 2026-04-21 01:02 | 33.77765 | -124.14100 | 34210 ft | 396 kts | 284° |
| 2026-04-21 01:02 | 33.78943 | -124.20569 | 34215 ft | 396 kts | 284° |
| 2026-04-21 01:03 | 33.80112 | -124.27009 | 34206 ft | 397 kts | 284° |
| 2026-04-21 01:03 | 33.81288 | -124.33504 | 34217 ft | 397 kts | 284° |
| 2026-04-21 01:04 | 33.82459 | -124.39996 | 34214 ft | 398 kts | 284° |
| 2026-04-21 01:04 | 33.83629 | -124.46506 | 34204 ft | 399 kts | 284° |
| 2026-04-21 01:05 | 33.84799 | -124.53031 | 34201 ft | 400 kts | 284° |
| 2026-04-21 01:05 | 33.85976 | -124.59617 | 34196 ft | 401 kts | 283° |
| 2026-04-21 01:06 | 33.87136 | -124.66134 | 34192 ft | 402 kts | 284° |
| 2026-04-21 01:06 | 33.88314 | -124.72765 | 34193 ft | 403 kts | 283° |
| 2026-04-21 01:07 | 33.89476 | -124.79323 | 34194 ft | 404 kts | 283° |
| 2026-04-21 01:07 | 33.90646 | -124.85945 | 34195 ft | 405 kts | 283° |
| 2026-04-21 01:08 | 33.91586 | -124.92636 | 34168 ft | 409 kts | 271° |
| 2026-04-21 01:08 | 33.91347 | -124.99508 | 34161 ft | 412 kts | 271° |
| 2026-04-21 01:09 | 33.91106 | -125.06409 | 34194 ft | 414 kts | 271° |
| 2026-04-21 01:09 | 33.90839 | -125.13335 | 34192 ft | 415 kts | 270° |
| 2026-04-21 01:10 | 33.90564 | -125.20298 | 34193 ft | 416 kts | 270° |
| 2026-04-21 01:10 | 33.90283 | -125.27273 | 34191 ft | 418 kts | 270° |
| 2026-04-21 01:11 | 33.89999 | -125.34261 | 34192 ft | 419 kts | 270° |
| 2026-04-21 01:11 | 33.89712 | -125.41226 | 34192 ft | 420 kts | 271° |
| 2026-04-21 01:12 | 33.89418 | -125.48242 | 34197 ft | 421 kts | 271° |
| 2026-04-21 01:12 | 33.89119 | -125.55289 | 34194 ft | 422 kts | 271° |
| 2026-04-21 01:13 | 33.88816 | -125.62344 | 34190 ft | 423 kts | 271° |
| 2026-04-21 01:13 | 33.88507 | -125.69421 | 34194 ft | 424 kts | 271° |
| 2026-04-21 01:14 | 33.88195 | -125.76506 | 34194 ft | 424 kts | 271° |
| 2026-04-21 01:14 | 33.87878 | -125.83595 | 34194 ft | 424 kts | 271° |
| 2026-04-21 01:15 | 33.87557 | -125.90680 | 34192 ft | 424 kts | 271° |
| 2026-04-21 01:15 | 33.87231 | -125.97772 | 34194 ft | 425 kts | 271° |
| 2026-04-21 01:16 | 33.86902 | -126.04872 | 34192 ft | 425 kts | 271° |
| 2026-04-21 01:16 | 33.86568 | -126.11980 | 34192 ft | 425 kts | 271° |
| 2026-04-21 01:17 | 33.86232 | -126.19029 | 34192 ft | 425 kts | 271° |
| 2026-04-21 01:17 | 33.85890 | -126.26127 | 34189 ft | 424 kts | 271° |
| 2026-04-21 01:18 | 33.85545 | -126.33214 | 34194 ft | 425 kts | 270° |
| 2026-04-21 01:18 | 33.85195 | -126.40307 | 34193 ft | 425 kts | 270° |
| 2026-04-21 01:19 | 33.84841 | -126.47401 | 34193 ft | 425 kts | 270° |
| 2026-04-21 01:19 | 33.84483 | -126.54492 | 34192 ft | 425 kts | 270° |
| 2026-04-21 01:20 | 33.84121 | -126.61588 | 34192 ft | 425 kts | 270° |
| 2026-04-21 01:20 | 33.83755 | -126.68671 | 34193 ft | 425 kts | 270° |
| 2026-04-21 01:21 | 33.83385 | -126.75763 | 34193 ft | 425 kts | 270° |
| 2026-04-21 01:21 | 33.83011 | -126.82847 | 34188 ft | 424 kts | 270° |
| 2026-04-21 01:22 | 33.82633 | -126.89936 | 34183 ft | 425 kts | 270° |
| 2026-04-21 01:22 | 33.82251 | -126.97025 | 34183 ft | 425 kts | 270° |
| 2026-04-21 01:23 | 33.81864 | -127.04114 | 34183 ft | 425 kts | 270° |
| 2026-04-21 01:23 | 33.81473 | -127.11216 | 34186 ft | 425 kts | 270° |
| 2026-04-21 01:24 | 33.81078 | -127.18316 | 34184 ft | 425 kts | 270° |
| 2026-04-21 01:24 | 33.80679 | -127.25414 | 34182 ft | 425 kts | 270° |
| 2026-04-21 01:25 | 33.80278 | -127.32467 | 34184 ft | 426 kts | 270° |
| 2026-04-21 01:25 | 33.79870 | -127.39576 | 34183 ft | 426 kts | 270° |
| 2026-04-21 01:26 | 33.79457 | -127.46695 | 34175 ft | 427 kts | 270° |
| 2026-04-21 01:26 | 33.79040 | -127.53824 | 34173 ft | 427 kts | 270° |
| 2026-04-21 01:27 | 33.78619 | -127.60950 | 34174 ft | 427 kts | 270° |
| 2026-04-21 01:27 | 33.78193 | -127.68080 | 34175 ft | 428 kts | 270° |
| 2026-04-21 01:28 | 33.77763 | -127.75216 | 34174 ft | 427 kts | 270° |
| 2026-04-21 01:28 | 33.77328 | -127.82355 | 34191 ft | 430 kts | 270° |
| 2026-04-21 01:29 | 33.77109 | -127.85931 | 34451 ft | 429 kts | 270° |
| 2026-04-21 01:29 | 33.76888 | -127.89507 | 34715 ft | 429 kts | 270° |
| 2026-04-21 01:29 | 33.76670 | -127.93030 | 34982 ft | 428 kts | 270° |
| 2026-04-21 01:29 | 33.76448 | -127.96592 | 35234 ft | 428 kts | 270° |
| 2026-04-21 01:30 | 33.76226 | -128.00156 | 35492 ft | 427 kts | 270° |
| 2026-04-21 01:30 | 33.76003 | -128.03712 | 35756 ft | 426 kts | 270° |
| 2026-04-21 01:30 | 33.75780 | -128.07253 | 36015 ft | 424 kts | 270° |
| 2026-04-21 01:30 | 33.75556 | -128.10784 | 36179 ft | 424 kts | 270° |
| 2026-04-21 01:31 | 33.75106 | -128.17836 | 36172 ft | 421 kts | 270° |
| 2026-04-21 01:31 | 33.74653 | -128.24873 | 36164 ft | 422 kts | 270° |
| 2026-04-21 01:32 | 33.74197 | -128.31896 | 36165 ft | 421 kts | 270° |
| 2026-04-21 01:32 | 33.73738 | -128.38908 | 36164 ft | 421 kts | 270° |
| 2026-04-21 01:33 | 33.73275 | -128.45914 | 36166 ft | 421 kts | 270° |
| 2026-04-21 01:33 | 33.72809 | -128.52914 | 36165 ft | 420 kts | 271° |
| 2026-04-21 01:34 | 33.72340 | -128.59890 | 36164 ft | 418 kts | 271° |
| 2026-04-21 01:34 | 33.71868 | -128.66856 | 36165 ft | 418 kts | 271° |
| 2026-04-21 01:35 | 33.71474 | -128.72622 | 36164 ft | 416 kts | 271° |
| 2026-04-21 01:35 | 33.70920 | -128.80666 | 36165 ft | 415 kts | 271° |
| 2026-04-21 01:36 | 33.70518 | -128.86448 | 36164 ft | 414 kts | 271° |
| 2026-04-21 01:36 | 33.70037 | -128.93335 | 36167 ft | 413 kts | 271° |
| 2026-04-21 01:37 | 33.69552 | -129.00210 | 36161 ft | 413 kts | 271° |
| 2026-04-21 01:37 | 33.69064 | -129.07077 | 36157 ft | 412 kts | 272° |
| 2026-04-21 01:38 | 33.68573 | -129.13927 | 36163 ft | 411 kts | 272° |
| 2026-04-21 01:38 | 33.68084 | -129.20708 | 36166 ft | 410 kts | 272° |
| 2026-04-21 01:39 | 33.67588 | -129.27521 | 36163 ft | 410 kts | 272° |
| 2026-04-21 01:39 | 33.67088 | -129.34339 | 36165 ft | 409 kts | 272° |
| 2026-04-21 01:40 | 33.66586 | -129.41136 | 36165 ft | 409 kts | 272° |
| 2026-04-21 01:40 | 33.66081 | -129.47931 | 36168 ft | 408 kts | 272° |
| 2026-04-21 01:41 | 33.65572 | -129.54710 | 36167 ft | 408 kts | 272° |
| 2026-04-21 01:41 | 33.65061 | -129.61483 | 36166 ft | 407 kts | 272° |
| 2026-04-21 01:42 | 33.64546 | -129.68259 | 36164 ft | 408 kts | 272° |
| 2026-04-21 01:42 | 33.64025 | -129.75041 | 36164 ft | 408 kts | 272° |
| 2026-04-21 01:43 | 33.63503 | -129.81817 | 36165 ft | 408 kts | 272° |
| 2026-04-21 01:43 | 33.62976 | -129.88589 | 36164 ft | 408 kts | 272° |
| 2026-04-21 01:44 | 33.62449 | -129.95316 | 36165 ft | 408 kts | 272° |
| 2026-04-21 01:44 | 33.61916 | -130.02094 | 36166 ft | 408 kts | 272° |
| 2026-04-21 01:45 | 33.61378 | -130.08855 | 36164 ft | 406 kts | 272° |
| 2026-04-21 01:45 | 33.60839 | -130.15602 | 36166 ft | 407 kts | 272° |
| 2026-04-21 01:46 | 33.60295 | -130.22351 | 36163 ft | 405 kts | 272° |
| 2026-04-21 01:46 | 33.59750 | -130.29071 | 36166 ft | 405 kts | 272° |
| 2026-04-21 01:47 | 33.59202 | -130.35796 | 36166 ft | 405 kts | 272° |
| 2026-04-21 01:47 | 33.58650 | -130.42511 | 36164 ft | 404 kts | 272° |
| 2026-04-21 01:48 | 33.58095 | -130.49224 | 36165 ft | 405 kts | 272° |
| 2026-04-21 01:48 | 33.57536 | -130.55937 | 36167 ft | 403 kts | 272° |
| 2026-04-21 01:49 | 33.56975 | -130.62621 | 36165 ft | 403 kts | 272° |
| 2026-04-21 01:49 | 33.56415 | -130.69263 | 36165 ft | 403 kts | 272° |
| 2026-04-21 01:50 | 33.55849 | -130.75935 | 36167 ft | 402 kts | 272° |
| 2026-04-21 01:50 | 33.55280 | -130.82587 | 36162 ft | 401 kts | 272° |
| 2026-04-21 01:51 | 33.54708 | -130.89241 | 36165 ft | 401 kts | 272° |
| 2026-04-21 01:51 | 33.54134 | -130.95869 | 36164 ft | 399 kts | 272° |
| 2026-04-21 01:52 | 33.53268 | -131.05797 | 36166 ft | 398 kts | 272° |
| 2026-04-21 01:53 | 33.52689 | -131.12387 | 36156 ft | 397 kts | 272° |
| 2026-04-21 01:53 | 33.52106 | -131.18972 | 36155 ft | 397 kts | 272° |
| 2026-04-21 01:54 | 33.51522 | -131.25541 | 36155 ft | 397 kts | 272° |
| 2026-04-21 01:54 | 33.50933 | -131.32114 | 36157 ft | 397 kts | 272° |
| 2026-04-21 01:55 | 33.50341 | -131.38689 | 36158 ft | 397 kts | 272° |
| 2026-04-21 01:55 | 33.49746 | -131.45256 | 36162 ft | 396 kts | 272° |
| 2026-04-21 01:56 | 33.49149 | -131.51812 | 36159 ft | 396 kts | 272° |
| 2026-04-21 01:56 | 33.48553 | -131.58314 | 36154 ft | 395 kts | 272° |
| 2026-04-21 01:57 | 33.47946 | -131.64888 | 36157 ft | 395 kts | 272° |
| 2026-04-21 01:57 | 33.47340 | -131.71420 | 36155 ft | 395 kts | 272° |
| 2026-04-21 01:58 | 33.46736 | -131.77908 | 36156 ft | 395 kts | 272° |
| 2026-04-21 01:58 | 33.46123 | -131.84433 | 36155 ft | 394 kts | 272° |
| 2026-04-21 01:59 | 33.45508 | -131.90953 | 36154 ft | 394 kts | 272° |
| 2026-04-21 01:59 | 33.44889 | -131.97471 | 36156 ft | 394 kts | 272° |
| 2026-04-21 02:00 | 33.44266 | -132.03994 | 36165 ft | 394 kts | 272° |
| 2026-04-21 02:00 | 33.43640 | -132.10516 | 36149 ft | 394 kts | 272° |
| 2026-04-21 02:01 | 33.43012 | -132.17030 | 36147 ft | 394 kts | 272° |
| 2026-04-21 02:01 | 33.42379 | -132.23548 | 36147 ft | 394 kts | 272° |
| 2026-04-21 02:02 | 33.41743 | -132.30063 | 36150 ft | 394 kts | 271° |
| 2026-04-21 02:02 | 33.41106 | -132.36562 | 36145 ft | 393 kts | 271° |
| 2026-04-21 02:03 | 33.40464 | -132.43067 | 36146 ft | 393 kts | 271° |
| 2026-04-21 02:03 | 33.39819 | -132.49566 | 36147 ft | 394 kts | 271° |
| 2026-04-21 02:04 | 33.39174 | -132.56038 | 36146 ft | 394 kts | 271° |
| 2026-04-21 02:04 | 33.38520 | -132.62555 | 36140 ft | 394 kts | 271° |
| 2026-04-21 02:05 | 33.37864 | -132.69063 | 36145 ft | 394 kts | 271° |
| 2026-04-21 02:05 | 33.37205 | -132.75567 | 36136 ft | 394 kts | 271° |
| 2026-04-21 02:06 | 33.36543 | -132.82076 | 36142 ft | 395 kts | 271° |
| 2026-04-21 02:06 | 33.35877 | -132.88592 | 36135 ft | 394 kts | 271° |
| 2026-04-21 02:07 | 33.35211 | -132.95081 | 36128 ft | 394 kts | 271° |
| 2026-04-21 02:07 | 33.34539 | -133.01585 | 36130 ft | 394 kts | 271° |
| 2026-04-21 02:08 | 33.33865 | -133.08090 | 36132 ft | 394 kts | 270° |
| 2026-04-21 02:08 | 33.33187 | -133.14584 | 36128 ft | 394 kts | 270° |
| 2026-04-21 02:09 | 33.32506 | -133.21083 | 36123 ft | 394 kts | 270° |
| 2026-04-21 02:09 | 33.31827 | -133.27536 | 36128 ft | 394 kts | 270° |
| 2026-04-21 02:10 | 33.31139 | -133.34032 | 36131 ft | 393 kts | 270° |
| 2026-04-21 02:10 | 33.30450 | -133.40518 | 36127 ft | 393 kts | 270° |
| 2026-04-21 02:11 | 33.29756 | -133.47003 | 36128 ft | 393 kts | 270° |
| 2026-04-21 02:11 | 33.29060 | -133.53485 | 36132 ft | 393 kts | 270° |
| 2026-04-21 02:12 | 33.28362 | -133.59953 | 36122 ft | 392 kts | 270° |
| 2026-04-21 02:12 | 33.27100 | -133.66381 | 36130 ft | 401 kts | 263° |
| 2026-04-21 02:13 | 33.25575 | -133.72796 | 36121 ft | 401 kts | 262° |
| 2026-04-21 02:13 | 33.24041 | -133.79208 | 36117 ft | 401 kts | 262° |
| 2026-04-21 02:14 | 33.22515 | -133.85574 | 36122 ft | 402 kts | 262° |
| 2026-04-21 02:14 | 33.20973 | -133.91986 | 36116 ft | 402 kts | 262° |
| 2026-04-21 02:15 | 33.19428 | -133.98397 | 36119 ft | 402 kts | 262° |
| 2026-04-21 02:15 | 33.17880 | -134.04801 | 36121 ft | 401 kts | 262° |
| 2026-04-21 02:16 | 33.16335 | -134.11184 | 36114 ft | 400 kts | 262° |
| 2026-04-21 02:16 | 33.14786 | -134.17562 | 36114 ft | 400 kts | 262° |
| 2026-04-21 02:17 | 33.13234 | -134.23939 | 36115 ft | 400 kts | 262° |
| 2026-04-21 02:17 | 33.11679 | -134.30312 | 36117 ft | 401 kts | 262° |
| 2026-04-21 02:18 | 33.10118 | -134.36696 | 36121 ft | 401 kts | 262° |
| 2026-04-21 02:18 | 33.08554 | -134.43075 | 36121 ft | 401 kts | 262° |
| 2026-04-21 02:19 | 33.06987 | -134.49448 | 36121 ft | 400 kts | 262° |
| 2026-04-21 02:19 | 33.05427 | -134.55784 | 36122 ft | 401 kts | 262° |
| 2026-04-21 02:20 | 33.03851 | -134.62163 | 36118 ft | 401 kts | 262° |
| 2026-04-21 02:20 | 33.02269 | -134.68551 | 36114 ft | 401 kts | 262° |
| 2026-04-21 02:21 | 33.00687 | -134.74928 | 36111 ft | 401 kts | 262° |
| 2026-04-21 02:21 | 32.99100 | -134.81305 | 36110 ft | 402 kts | 262° |
| 2026-04-21 02:22 | 32.97510 | -134.87682 | 36111 ft | 402 kts | 262° |
| 2026-04-21 02:22 | 32.95917 | -134.94054 | 36109 ft | 402 kts | 262° |
| 2026-04-21 02:23 | 32.94321 | -135.00426 | 36112 ft | 401 kts | 261° |
| 2026-04-21 02:23 | 32.92725 | -135.06780 | 36105 ft | 401 kts | 261° |
| 2026-04-21 02:24 | 32.91125 | -135.13136 | 36111 ft | 401 kts | 261° |
| 2026-04-21 02:24 | 32.89521 | -135.19491 | 36109 ft | 401 kts | 261° |
| 2026-04-21 02:25 | 32.87926 | -135.25799 | 36108 ft | 401 kts | 261° |
| 2026-04-21 02:25 | 32.86317 | -135.32144 | 36109 ft | 401 kts | 261° |
| 2026-04-21 02:26 | 32.84702 | -135.38497 | 36111 ft | 401 kts | 261° |
| 2026-04-21 02:26 | 32.83085 | -135.44845 | 36118 ft | 401 kts | 261° |
| 2026-04-21 02:27 | 32.81464 | -135.51195 | 36122 ft | 401 kts | 261° |
| 2026-04-21 02:27 | 32.79843 | -135.57526 | 36120 ft | 400 kts | 261° |
| 2026-04-21 02:28 | 32.78495 | -135.62783 | 36118 ft | 400 kts | 261° |
| 2026-04-21 02:28 | 32.76868 | -135.69113 | 36118 ft | 400 kts | 261° |
| 2026-04-21 02:29 | 32.75239 | -135.75439 | 36118 ft | 401 kts | 261° |
| 2026-04-21 02:29 | 32.73604 | -135.81769 | 36114 ft | 400 kts | 261° |
| 2026-04-21 02:30 | 32.71968 | -135.88091 | 36122 ft | 400 kts | 261° |
| 2026-04-21 02:30 | 32.70328 | -135.94414 | 36120 ft | 400 kts | 261° |
| 2026-04-21 02:31 | 32.68684 | -136.00734 | 36119 ft | 401 kts | 261° |
| 2026-04-21 02:31 | 32.67038 | -136.07050 | 36119 ft | 400 kts | 261° |
| 2026-04-21 02:32 | 32.65392 | -136.13352 | 36122 ft | 400 kts | 261° |
| 2026-04-21 02:32 | 32.63741 | -136.19656 | 36122 ft | 400 kts | 261° |
| 2026-04-21 02:33 | 32.62089 | -136.25956 | 36119 ft | 400 kts | 261° |
| 2026-04-21 02:33 | 32.60442 | -136.32218 | 36119 ft | 400 kts | 261° |
| 2026-04-21 02:34 | 32.58781 | -136.38518 | 36111 ft | 400 kts | 261° |
| 2026-04-21 02:34 | 32.57118 | -136.44814 | 36109 ft | 400 kts | 261° |
| 2026-04-21 02:35 | 32.55451 | -136.51110 | 36111 ft | 400 kts | 261° |
| 2026-04-21 02:35 | 32.53781 | -136.57402 | 36109 ft | 400 kts | 261° |
| 2026-04-21 02:36 | 32.52107 | -136.63697 | 36111 ft | 400 kts | 260° |
| 2026-04-21 02:36 | 32.50430 | -136.69987 | 36112 ft | 400 kts | 260° |
| 2026-04-21 02:37 | 32.48753 | -136.76262 | 36107 ft | 399 kts | 260° |
| 2026-04-21 02:37 | 32.47083 | -136.82501 | 36109 ft | 400 kts | 260° |
| 2026-04-21 02:38 | 32.45399 | -136.88776 | 36108 ft | 400 kts | 260° |
| 2026-04-21 02:38 | 32.43712 | -136.95048 | 36111 ft | 400 kts | 260° |
| 2026-04-21 02:39 | 32.42022 | -137.01319 | 36111 ft | 400 kts | 260° |
| 2026-04-21 02:39 | 32.40328 | -137.07588 | 36109 ft | 400 kts | 260° |
| 2026-04-21 02:40 | 32.38629 | -137.13867 | 36109 ft | 400 kts | 260° |
| 2026-04-21 02:40 | 32.36928 | -137.20133 | 36111 ft | 400 kts | 260° |
| 2026-04-21 02:41 | 32.35222 | -137.26408 | 36111 ft | 400 kts | 260° |
| 2026-04-21 02:41 | 32.33514 | -137.32673 | 36109 ft | 400 kts | 260° |
| 2026-04-21 02:42 | 32.31802 | -137.38943 | 36112 ft | 401 kts | 260° |
| 2026-04-21 02:42 | 32.30086 | -137.45212 | 36111 ft | 401 kts | 260° |
| 2026-04-21 02:43 | 32.28365 | -137.51483 | 36108 ft | 401 kts | 260° |
| 2026-04-21 02:43 | 32.26654 | -137.57706 | 36109 ft | 401 kts | 259° |
| 2026-04-21 02:44 | 32.24933 | -137.63956 | 36108 ft | 400 kts | 259° |
| 2026-04-21 02:44 | 32.23208 | -137.70204 | 36099 ft | 401 kts | 260° |
| 2026-04-21 02:45 | 32.21473 | -137.76474 | 36101 ft | 401 kts | 259° |
| 2026-04-21 02:45 | 32.19736 | -137.82737 | 36101 ft | 401 kts | 259° |
| 2026-04-21 02:46 | 32.17994 | -137.89003 | 36101 ft | 401 kts | 259° |
| 2026-04-21 02:46 | 32.16251 | -137.95266 | 36100 ft | 401 kts | 259° |
| 2026-04-21 02:47 | 32.14504 | -138.01522 | 36100 ft | 402 kts | 259° |
| 2026-04-21 02:47 | 32.12753 | -138.07782 | 36101 ft | 402 kts | 259° |
| 2026-04-21 02:48 | 32.10998 | -138.14041 | 36100 ft | 402 kts | 259° |
| 2026-04-21 02:48 | 32.09243 | -138.20292 | 36101 ft | 402 kts | 259° |
| 2026-04-21 02:49 | 32.07496 | -138.26500 | 36102 ft | 402 kts | 259° |
| 2026-04-21 02:49 | 32.05732 | -138.32747 | 36099 ft | 401 kts | 259° |
| 2026-04-21 02:50 | 32.03970 | -138.38983 | 36101 ft | 401 kts | 259° |
| 2026-04-21 02:50 | 32.02205 | -138.45213 | 36099 ft | 401 kts | 259° |
| 2026-04-21 02:51 | 32.00438 | -138.51437 | 36100 ft | 400 kts | 259° |
| 2026-04-21 02:51 | 31.98670 | -138.57650 | 36098 ft | 401 kts | 259° |
| 2026-04-21 02:52 | 31.96897 | -138.63868 | 36099 ft | 400 kts | 259° |
| 2026-04-21 02:52 | 31.95120 | -138.70089 | 36102 ft | 401 kts | 259° |
| 2026-04-21 02:53 | 31.93338 | -138.76313 | 36100 ft | 401 kts | 259° |
| 2026-04-21 02:53 | 31.91563 | -138.82501 | 36099 ft | 401 kts | 259° |
| 2026-04-21 02:54 | 31.89778 | -138.88712 | 36100 ft | 401 kts | 258° |
| 2026-04-21 02:54 | 31.87986 | -138.94931 | 36102 ft | 401 kts | 258° |
| 2026-04-21 02:55 | 31.86196 | -139.01142 | 36085 ft | 400 kts | 258° |
| 2026-04-21 02:55 | 31.84403 | -139.07330 | 36113 ft | 401 kts | 258° |
| 2026-04-21 02:56 | 31.82607 | -139.13527 | 36100 ft | 399 kts | 258° |
| 2026-04-21 02:56 | 31.79912 | -139.22798 | 36102 ft | 399 kts | 258° |
| 2026-04-21 02:57 | 31.78115 | -139.28966 | 36101 ft | 399 kts | 258° |
| 2026-04-21 02:57 | 31.76328 | -139.35090 | 36103 ft | 399 kts | 258° |
| 2026-04-21 02:58 | 31.74523 | -139.41256 | 36096 ft | 398 kts | 258° |
| 2026-04-21 02:58 | 31.72721 | -139.47402 | 36100 ft | 398 kts | 258° |
| 2026-04-21 02:59 | 31.70917 | -139.53546 | 36101 ft | 398 kts | 258° |
| 2026-04-21 02:59 | 31.69108 | -139.59692 | 36102 ft | 398 kts | 258° |
| 2026-04-21 03:00 | 31.67298 | -139.65830 | 36103 ft | 397 kts | 258° |
| 2026-04-21 03:00 | 31.65491 | -139.71944 | 36102 ft | 396 kts | 258° |
| 2026-04-21 03:01 | 31.63680 | -139.78058 | 36106 ft | 396 kts | 258° |
| 2026-04-21 03:01 | 31.61869 | -139.84164 | 36104 ft | 396 kts | 258° |
| 2026-04-21 03:02 | 31.60054 | -139.90270 | 36102 ft | 397 kts | 258° |
| 2026-04-21 03:02 | 31.58234 | -139.96379 | 36106 ft | 396 kts | 257° |
| 2026-04-21 03:03 | 31.56415 | -140.02479 | 36123 ft | 397 kts | 257° |
| 2026-04-21 03:03 | 31.54601 | -140.08538 | 36101 ft | 396 kts | 257° |
| 2026-04-21 03:04 | 31.52773 | -140.14637 | 36101 ft | 396 kts | 257° |
| 2026-04-21 03:04 | 31.50941 | -140.20740 | 36102 ft | 397 kts | 257° |
| 2026-04-21 03:05 | 31.49108 | -140.26832 | 36101 ft | 396 kts | 257° |
| 2026-04-21 03:05 | 31.47272 | -140.32924 | 36100 ft | 397 kts | 257° |
| 2026-04-21 03:06 | 31.45430 | -140.39023 | 36101 ft | 397 kts | 257° |
| 2026-04-21 03:06 | 31.43584 | -140.45123 | 36101 ft | 398 kts | 257° |
| 2026-04-21 03:07 | 31.41731 | -140.51233 | 36103 ft | 398 kts | 257° |
| 2026-04-21 03:07 | 31.39879 | -140.57330 | 36101 ft | 398 kts | 257° |
| 2026-04-21 03:08 | 31.38022 | -140.63437 | 36100 ft | 398 kts | 256° |
| 2026-04-21 03:08 | 31.36161 | -140.69543 | 36102 ft | 399 kts | 256° |
| 2026-04-21 03:09 | 31.34295 | -140.75655 | 36093 ft | 399 kts | 256° |
| 2026-04-21 03:09 | 31.32427 | -140.81762 | 36101 ft | 399 kts | 256° |
| 2026-04-21 03:10 | 31.30567 | -140.87829 | 36101 ft | 398 kts | 256° |
| 2026-04-21 03:10 | 31.28683 | -140.93965 | 36101 ft | 399 kts | 256° |
| 2026-04-21 03:11 | 31.26816 | -141.00032 | 36099 ft | 399 kts | 256° |
| 2026-04-21 03:11 | 31.24938 | -141.06125 | 36102 ft | 399 kts | 256° |
| 2026-04-21 03:12 | 31.23056 | -141.12218 | 36100 ft | 399 kts | 256° |
| 2026-04-21 03:12 | 31.21173 | -141.18307 | 36099 ft | 398 kts | 256° |
| 2026-04-21 03:13 | 31.19286 | -141.24392 | 36100 ft | 398 kts | 256° |
| 2026-04-21 03:13 | 31.17422 | -141.30474 | 36095 ft | 401 kts | 251° |
| 2026-04-21 03:14 | 31.14642 | -141.36186 | 36091 ft | 404 kts | 248° |
| 2026-04-21 03:14 | 31.11981 | -141.41968 | 36099 ft | 404 kts | 248° |
| 2026-04-21 03:15 | 31.09350 | -141.47758 | 36102 ft | 404 kts | 248° |
| 2026-04-21 03:15 | 31.06716 | -141.53562 | 36101 ft | 405 kts | 248° |
| 2026-04-21 03:16 | 31.04078 | -141.59365 | 36100 ft | 405 kts | 248° |
| 2026-04-21 03:16 | 31.01442 | -141.65156 | 36095 ft | 404 kts | 248° |
| 2026-04-21 03:17 | 30.98803 | -141.70945 | 36118 ft | 405 kts | 248° |
| 2026-04-21 03:17 | 30.96157 | -141.76740 | 36121 ft | 405 kts | 248° |
| 2026-04-21 03:18 | 30.93956 | -141.81555 | 36119 ft | 405 kts | 248° |
| 2026-04-21 03:18 | 30.90872 | -141.88291 | 36121 ft | 406 kts | 248° |
| 2026-04-21 03:19 | 30.88642 | -141.93153 | 36121 ft | 406 kts | 248° |
| 2026-04-21 03:19 | 30.85978 | -141.98953 | 36122 ft | 407 kts | 248° |
| 2026-04-21 03:20 | 30.83313 | -142.04745 | 36120 ft | 406 kts | 247° |
| 2026-04-21 03:20 | 30.80652 | -142.10524 | 36118 ft | 405 kts | 247° |
| 2026-04-21 03:21 | 30.77988 | -142.16297 | 36119 ft | 405 kts | 247° |
| 2026-04-21 03:21 | 30.75335 | -142.22040 | 36420 ft | 406 kts | 247° |
| 2026-04-21 03:22 | 30.73997 | -142.24934 | 36623 ft | 407 kts | 247° |
| 2026-04-21 03:22 | 30.72657 | -142.27829 | 36837 ft | 407 kts | 247° |
| 2026-04-21 03:22 | 30.71316 | -142.30722 | 37110 ft | 405 kts | 247° |
| 2026-04-21 03:22 | 30.69981 | -142.33602 | 37332 ft | 405 kts | 247° |
| 2026-04-21 03:23 | 30.68643 | -142.36484 | 37532 ft | 405 kts | 247° |
| 2026-04-21 03:23 | 30.67311 | -142.39353 | 37753 ft | 403 kts | 247° |
| 2026-04-21 03:23 | 30.65982 | -142.42214 | 37982 ft | 402 kts | 247° |
| 2026-04-21 03:23 | 30.64656 | -142.45065 | 38127 ft | 401 kts | 247° |
| 2026-04-21 03:24 | 30.62004 | -142.50760 | 38116 ft | 399 kts | 248° |
| 2026-04-21 03:24 | 30.59367 | -142.56418 | 38119 ft | 398 kts | 247° |
| 2026-04-21 03:25 | 30.56730 | -142.62065 | 38119 ft | 398 kts | 247° |
| 2026-04-21 03:25 | 30.54096 | -142.67698 | 38118 ft | 397 kts | 247° |
| 2026-04-21 03:26 | 30.51463 | -142.73320 | 38118 ft | 396 kts | 247° |
| 2026-04-21 03:26 | 30.48832 | -142.78931 | 38118 ft | 396 kts | 247° |
| 2026-04-21 03:27 | 30.46223 | -142.84486 | 38120 ft | 394 kts | 247° |
| 2026-04-21 03:27 | 30.43599 | -142.90065 | 38120 ft | 393 kts | 247° |
| 2026-04-21 03:28 | 30.40983 | -142.95619 | 38118 ft | 392 kts | 247° |
| 2026-04-21 03:28 | 30.38368 | -143.01165 | 38119 ft | 392 kts | 247° |
| 2026-04-21 03:29 | 30.35760 | -143.06686 | 38119 ft | 391 kts | 247° |
| 2026-04-21 03:29 | 30.33148 | -143.12207 | 38120 ft | 390 kts | 247° |
| 2026-04-21 03:30 | 30.30541 | -143.17712 | 38118 ft | 390 kts | 247° |
| 2026-04-21 03:30 | 30.27932 | -143.23211 | 38120 ft | 390 kts | 247° |
| 2026-04-21 03:31 | 30.25339 | -143.28670 | 38119 ft | 390 kts | 247° |
| 2026-04-21 03:31 | 30.22728 | -143.34159 | 38117 ft | 390 kts | 247° |
| 2026-04-21 03:32 | 30.20112 | -143.39650 | 38119 ft | 390 kts | 247° |
| 2026-04-21 03:32 | 30.17494 | -143.45140 | 38120 ft | 390 kts | 247° |
| 2026-04-21 03:33 | 30.14873 | -143.50624 | 38117 ft | 389 kts | 247° |
| 2026-04-21 03:33 | 30.12253 | -143.56102 | 38110 ft | 389 kts | 247° |
| 2026-04-21 03:34 | 30.09631 | -143.61576 | 38110 ft | 389 kts | 247° |
| 2026-04-21 03:34 | 30.07006 | -143.67049 | 38110 ft | 389 kts | 247° |
| 2026-04-21 03:35 | 30.04378 | -143.72518 | 38110 ft | 390 kts | 247° |
| 2026-04-21 03:35 | 30.01764 | -143.77952 | 38112 ft | 390 kts | 247° |
| 2026-04-21 03:36 | 29.99131 | -143.83418 | 38108 ft | 390 kts | 247° |
| 2026-04-21 03:36 | 29.96497 | -143.88880 | 38109 ft | 390 kts | 247° |
| 2026-04-21 03:37 | 29.93856 | -143.94346 | 38109 ft | 390 kts | 247° |
| 2026-04-21 03:37 | 29.91218 | -143.99800 | 38109 ft | 390 kts | 247° |
| 2026-04-21 03:38 | 29.88578 | -144.05250 | 38108 ft | 390 kts | 247° |
| 2026-04-21 03:38 | 29.85935 | -144.10699 | 38110 ft | 390 kts | 247° |
| 2026-04-21 03:39 | 29.83287 | -144.16151 | 38109 ft | 390 kts | 247° |
| 2026-04-21 03:39 | 29.80639 | -144.21594 | 38110 ft | 390 kts | 247° |
| 2026-04-21 03:40 | 29.77988 | -144.27037 | 38111 ft | 390 kts | 246° |
| 2026-04-21 03:40 | 29.75349 | -144.32448 | 38109 ft | 390 kts | 246° |
| 2026-04-21 03:41 | 29.72693 | -144.37887 | 38111 ft | 390 kts | 246° |
| 2026-04-21 03:41 | 29.70033 | -144.43325 | 38112 ft | 390 kts | 246° |
| 2026-04-21 03:42 | 29.67371 | -144.48761 | 38110 ft | 390 kts | 246° |
| 2026-04-21 03:42 | 29.64707 | -144.54194 | 38107 ft | 390 kts | 246° |
| 2026-04-21 03:43 | 29.62039 | -144.59626 | 38110 ft | 390 kts | 246° |
| 2026-04-21 03:43 | 29.59369 | -144.65057 | 38109 ft | 390 kts | 246° |
| 2026-04-21 03:44 | 29.56695 | -144.70487 | 38110 ft | 390 kts | 246° |
| 2026-04-21 03:44 | 29.54025 | -144.75903 | 38111 ft | 389 kts | 246° |
| 2026-04-21 03:45 | 29.51351 | -144.81318 | 38109 ft | 389 kts | 246° |
| 2026-04-21 03:45 | 29.48679 | -144.86724 | 38110 ft | 389 kts | 245° |
| 2026-04-21 03:46 | 29.46004 | -144.92127 | 38110 ft | 389 kts | 245° |
| 2026-04-21 03:46 | 29.43347 | -144.97486 | 38110 ft | 389 kts | 245° |
| 2026-04-21 03:47 | 29.40671 | -145.02877 | 38110 ft | 388 kts | 245° |
| 2026-04-21 03:47 | 29.37996 | -145.08259 | 38110 ft | 389 kts | 245° |
| 2026-04-21 03:48 | 29.35316 | -145.13643 | 38109 ft | 389 kts | 245° |
| 2026-04-21 03:48 | 29.32638 | -145.19018 | 38109 ft | 388 kts | 245° |
| 2026-04-21 03:49 | 29.29958 | -145.24388 | 38109 ft | 388 kts | 245° |
| 2026-04-21 03:49 | 29.27276 | -145.29756 | 38110 ft | 388 kts | 245° |
| 2026-04-21 03:50 | 29.24589 | -145.35125 | 38110 ft | 388 kts | 245° |
| 2026-04-21 03:50 | 29.21924 | -145.40444 | 38109 ft | 387 kts | 245° |
| 2026-04-21 03:51 | 29.19239 | -145.45796 | 38109 ft | 388 kts | 245° |
| 2026-04-21 03:51 | 29.16555 | -145.51139 | 38111 ft | 388 kts | 245° |
| 2026-04-21 03:52 | 29.13864 | -145.56488 | 38109 ft | 388 kts | 244° |
| 2026-04-21 03:52 | 29.11172 | -145.61833 | 38111 ft | 388 kts | 244° |
| 2026-04-21 03:53 | 29.08475 | -145.67182 | 38110 ft | 388 kts | 244° |
| 2026-04-21 03:53 | 29.05778 | -145.72523 | 38108 ft | 388 kts | 244° |
| 2026-04-21 03:54 | 29.03076 | -145.77865 | 38111 ft | 388 kts | 244° |
| 2026-04-21 03:54 | 29.00371 | -145.83209 | 38110 ft | 389 kts | 244° |
| 2026-04-21 03:55 | 28.97676 | -145.88526 | 38110 ft | 389 kts | 244° |
| 2026-04-21 03:55 | 28.94960 | -145.93873 | 38111 ft | 389 kts | 244° |
| 2026-04-21 03:56 | 28.92245 | -145.99216 | 38102 ft | 389 kts | 244° |
| 2026-04-21 03:56 | 28.89523 | -146.04564 | 38107 ft | 388 kts | 244° |
| 2026-04-21 03:57 | 28.86816 | -146.09875 | 38103 ft | 386 kts | 244° |
| 2026-04-21 03:57 | 28.84107 | -146.15187 | 38101 ft | 387 kts | 244° |
| 2026-04-21 03:58 | 28.81398 | -146.20489 | 38103 ft | 387 kts | 244° |
| 2026-04-21 03:58 | 28.78685 | -146.25792 | 38097 ft | 387 kts | 243° |
| 2026-04-21 03:59 | 28.75967 | -146.31098 | 38101 ft | 388 kts | 243° |
| 2026-04-21 04:00 | 28.71879 | -146.39066 | 38101 ft | 388 kts | 243° |
| 2026-04-21 04:00 | 28.69156 | -146.44365 | 38105 ft | 388 kts | 243° |
| 2026-04-21 04:01 | 28.66430 | -146.49664 | 38101 ft | 388 kts | 243° |
| 2026-04-21 04:01 | 28.63720 | -146.54922 | 38099 ft | 388 kts | 243° |
| 2026-04-21 04:02 | 28.60988 | -146.60219 | 38098 ft | 388 kts | 243° |
| 2026-04-21 04:02 | 28.58256 | -146.65509 | 38099 ft | 388 kts | 243° |
| 2026-04-21 04:03 | 28.55519 | -146.70801 | 38099 ft | 388 kts | 243° |
| 2026-04-21 04:03 | 28.52781 | -146.76087 | 38104 ft | 388 kts | 243° |
| 2026-04-21 04:04 | 28.50047 | -146.81362 | 38101 ft | 387 kts | 243° |
| 2026-04-21 04:04 | 28.47309 | -146.86637 | 38101 ft | 386 kts | 243° |
| 2026-04-21 04:05 | 28.44576 | -146.91893 | 38100 ft | 386 kts | 243° |
| 2026-04-21 04:05 | 28.41838 | -146.97154 | 38101 ft | 386 kts | 243° |
| 2026-04-21 04:06 | 28.39103 | -147.02404 | 38099 ft | 386 kts | 243° |
| 2026-04-21 04:06 | 28.36830 | -147.06761 | 38102 ft | 386 kts | 243° |
| 2026-04-21 04:07 | 28.34088 | -147.12009 | 38100 ft | 386 kts | 243° |
| 2026-04-21 04:07 | 28.31351 | -147.17244 | 38101 ft | 386 kts | 243° |
| 2026-04-21 04:08 | 28.28612 | -147.22476 | 38098 ft | 386 kts | 243° |
| 2026-04-21 04:08 | 28.25865 | -147.27714 | 38101 ft | 386 kts | 242° |
| 2026-04-21 04:09 | 28.23120 | -147.32945 | 38102 ft | 385 kts | 242° |
| 2026-04-21 04:09 | 28.20378 | -147.38165 | 38101 ft | 386 kts | 242° |
| 2026-04-21 04:10 | 28.17649 | -147.43353 | 38103 ft | 386 kts | 242° |
| 2026-04-21 04:10 | 28.14904 | -147.48566 | 38099 ft | 385 kts | 242° |
| 2026-04-21 04:11 | 28.12157 | -147.53778 | 38097 ft | 385 kts | 242° |
| 2026-04-21 04:11 | 28.09408 | -147.58985 | 38099 ft | 385 kts | 242° |
| 2026-04-21 04:12 | 28.06654 | -147.64196 | 38098 ft | 386 kts | 242° |
| 2026-04-21 04:12 | 28.03899 | -147.69400 | 38100 ft | 385 kts | 242° |
| 2026-04-21 04:13 | 28.01147 | -147.74596 | 38100 ft | 385 kts | 242° |
| 2026-04-21 04:13 | 27.98390 | -147.79795 | 38107 ft | 385 kts | 242° |
| 2026-04-21 04:14 | 27.95634 | -147.84985 | 38108 ft | 385 kts | 242° |
| 2026-04-21 04:14 | 27.92872 | -147.90179 | 38109 ft | 385 kts | 242° |
| 2026-04-21 04:15 | 27.90112 | -147.95363 | 38109 ft | 385 kts | 242° |
| 2026-04-21 04:15 | 27.87350 | -148.00514 | 38110 ft | 385 kts | 242° |
| 2026-04-21 04:16 | 27.84579 | -148.05696 | 38109 ft | 385 kts | 242° |
| 2026-04-21 04:16 | 27.81808 | -148.10877 | 38109 ft | 385 kts | 242° |
| 2026-04-21 04:17 | 27.79037 | -148.16052 | 38109 ft | 385 kts | 242° |
| 2026-04-21 04:17 | 27.76261 | -148.21230 | 38109 ft | 385 kts | 242° |
| 2026-04-21 04:18 | 27.73485 | -148.26402 | 38109 ft | 385 kts | 242° |
| 2026-04-21 04:18 | 27.70703 | -148.31581 | 38113 ft | 386 kts | 242° |
| 2026-04-21 04:19 | 27.67922 | -148.36747 | 38112 ft | 385 kts | 242° |
| 2026-04-21 04:19 | 27.65162 | -148.41872 | 38111 ft | 385 kts | 242° |
| 2026-04-21 04:20 | 27.62376 | -148.47038 | 38111 ft | 385 kts | 242° |
| 2026-04-21 04:20 | 27.59591 | -148.52196 | 38112 ft | 385 kts | 242° |
| 2026-04-21 04:21 | 27.56806 | -148.57348 | 38112 ft | 384 kts | 241° |
| 2026-04-21 04:21 | 27.54024 | -148.62487 | 38109 ft | 384 kts | 241° |
| 2026-04-21 04:22 | 27.51241 | -148.67623 | 38104 ft | 384 kts | 241° |
| 2026-04-21 04:22 | 27.48455 | -148.72757 | 38103 ft | 384 kts | 241° |
| 2026-04-21 04:23 | 27.45672 | -148.77882 | 38104 ft | 383 kts | 241° |
| 2026-04-21 04:23 | 27.42888 | -148.83000 | 38109 ft | 383 kts | 241° |
| 2026-04-21 04:24 | 27.40105 | -148.88113 | 38108 ft | 383 kts | 241° |
| 2026-04-21 04:24 | 27.37336 | -148.93192 | 38109 ft | 383 kts | 241° |
| 2026-04-21 04:25 | 27.34548 | -148.98301 | 38111 ft | 383 kts | 241° |
| 2026-04-21 04:25 | 27.31766 | -149.03392 | 38108 ft | 382 kts | 241° |
| 2026-04-21 04:26 | 27.28982 | -149.08483 | 38109 ft | 382 kts | 241° |
| 2026-04-21 04:26 | 27.26199 | -149.13565 | 38109 ft | 382 kts | 241° |
| 2026-04-21 04:27 | 27.23411 | -149.18649 | 38109 ft | 382 kts | 241° |
| 2026-04-21 04:27 | 27.20622 | -149.23730 | 38101 ft | 382 kts | 241° |
| 2026-04-21 04:28 | 27.17830 | -149.28811 | 38098 ft | 382 kts | 241° |
| 2026-04-21 04:28 | 27.15038 | -149.33884 | 38100 ft | 382 kts | 241° |
| 2026-04-21 04:29 | 27.12243 | -149.38960 | 38101 ft | 382 kts | 241° |
| 2026-04-21 04:29 | 27.09445 | -149.44033 | 38103 ft | 382 kts | 241° |
| 2026-04-21 04:30 | 27.06648 | -149.49101 | 38102 ft | 382 kts | 240° |
| 2026-04-21 04:30 | 27.03847 | -149.54167 | 38098 ft | 382 kts | 241° |
| 2026-04-21 04:31 | 27.01045 | -149.59232 | 38104 ft | 382 kts | 240° |
| 2026-04-21 04:31 | 26.98244 | -149.64287 | 38099 ft | 381 kts | 241° |
| 2026-04-21 04:32 | 26.95461 | -149.69305 | 38098 ft | 381 kts | 240° |
| 2026-04-21 04:32 | 26.92662 | -149.74347 | 38100 ft | 381 kts | 240° |
| 2026-04-21 04:33 | 26.89860 | -149.79387 | 38099 ft | 381 kts | 240° |
| 2026-04-21 04:33 | 26.87058 | -149.84421 | 38097 ft | 381 kts | 240° |
| 2026-04-21 04:34 | 26.84251 | -149.89461 | 38099 ft | 381 kts | 240° |
| 2026-04-21 04:34 | 26.81448 | -149.94486 | 38101 ft | 381 kts | 240° |
| 2026-04-21 04:35 | 26.78639 | -149.99516 | 38101 ft | 381 kts | 240° |
| 2026-04-21 04:35 | 26.75833 | -150.04534 | 38099 ft | 379 kts | 240° |
| 2026-04-21 04:36 | 26.73044 | -150.09519 | 38104 ft | 378 kts | 240° |
| 2026-04-21 04:36 | 26.70248 | -150.14508 | 38102 ft | 378 kts | 240° |
| 2026-04-21 04:37 | 26.67471 | -150.19461 | 38100 ft | 378 kts | 240° |
| 2026-04-21 04:37 | 26.64673 | -150.24444 | 38100 ft | 378 kts | 240° |
| 2026-04-21 04:38 | 26.61872 | -150.29425 | 38102 ft | 378 kts | 240° |
| 2026-04-21 04:38 | 26.59071 | -150.34402 | 38099 ft | 378 kts | 240° |
| 2026-04-21 04:39 | 26.56268 | -150.39378 | 38101 ft | 378 kts | 240° |
| 2026-04-21 04:39 | 26.53464 | -150.44349 | 38088 ft | 378 kts | 240° |
| 2026-04-21 04:40 | 26.50661 | -150.49315 | 38074 ft | 378 kts | 240° |
| 2026-04-21 04:40 | 26.47852 | -150.54284 | 38073 ft | 378 kts | 240° |
| 2026-04-21 04:41 | 26.45060 | -150.59217 | 38074 ft | 379 kts | 240° |
| 2026-04-21 04:41 | 26.42250 | -150.64177 | 38072 ft | 378 kts | 239° |
| 2026-04-21 04:42 | 26.39441 | -150.69130 | 38074 ft | 378 kts | 239° |
| 2026-04-21 04:42 | 26.36631 | -150.74081 | 38072 ft | 377 kts | 239° |
| 2026-04-21 04:43 | 26.33825 | -150.79017 | 38073 ft | 377 kts | 239° |
| 2026-04-21 04:43 | 26.31013 | -150.83959 | 38073 ft | 377 kts | 239° |
| 2026-04-21 04:44 | 26.28207 | -150.88886 | 38073 ft | 377 kts | 239° |
| 2026-04-21 04:44 | 26.25395 | -150.93816 | 38072 ft | 377 kts | 239° |
| 2026-04-21 04:45 | 26.22585 | -150.98739 | 38072 ft | 376 kts | 239° |
| 2026-04-21 04:45 | 26.19779 | -151.03649 | 38073 ft | 375 kts | 239° |
| 2026-04-21 04:46 | 26.16973 | -151.08554 | 38073 ft | 376 kts | 239° |
| 2026-04-21 04:46 | 26.14166 | -151.13456 | 38071 ft | 376 kts | 239° |
| 2026-04-21 04:47 | 26.11375 | -151.18324 | 38075 ft | 375 kts | 239° |
| 2026-04-21 04:47 | 26.08554 | -151.23239 | 38072 ft | 374 kts | 239° |
| 2026-04-21 04:48 | 26.05767 | -151.28091 | 38073 ft | 374 kts | 239° |
| 2026-04-21 04:48 | 26.02962 | -151.32969 | 38073 ft | 374 kts | 239° |
| 2026-04-21 04:49 | 26.00152 | -151.37849 | 38074 ft | 374 kts | 239° |
| 2026-04-21 04:49 | 25.97344 | -151.42721 | 38073 ft | 374 kts | 238° |
| 2026-04-21 04:50 | 25.94528 | -151.47602 | 38073 ft | 375 kts | 238° |
| 2026-04-21 04:50 | 25.91716 | -151.52472 | 38071 ft | 374 kts | 238° |
| 2026-04-21 04:51 | 25.88904 | -151.57335 | 38074 ft | 374 kts | 238° |
| 2026-04-21 04:51 | 25.86112 | -151.62158 | 38072 ft | 373 kts | 238° |
| 2026-04-21 04:52 | 25.83299 | -151.67012 | 38072 ft | 374 kts | 238° |
| 2026-04-21 04:52 | 25.80491 | -151.71855 | 38074 ft | 373 kts | 238° |
| 2026-04-21 04:53 | 25.77675 | -151.76704 | 38072 ft | 374 kts | 238° |
| 2026-04-21 04:53 | 25.74861 | -151.81547 | 38073 ft | 373 kts | 238° |
| 2026-04-21 04:54 | 25.72046 | -151.86384 | 38072 ft | 373 kts | 238° |
| 2026-04-21 04:54 | 25.69229 | -151.91221 | 38073 ft | 373 kts | 238° |
| 2026-04-21 04:55 | 25.66408 | -151.96060 | 38073 ft | 373 kts | 238° |
| 2026-04-21 04:55 | 25.63590 | -152.00888 | 38071 ft | 373 kts | 238° |
| 2026-04-21 04:56 | 25.61248 | -152.04897 | 38072 ft | 373 kts | 238° |
| 2026-04-21 04:56 | 25.58433 | -152.09712 | 38073 ft | 372 kts | 238° |
| 2026-04-21 04:57 | 25.55615 | -152.14525 | 38074 ft | 373 kts | 238° |
| 2026-04-21 04:57 | 25.52787 | -152.19352 | 38076 ft | 374 kts | 238° |
| 2026-04-21 04:58 | 25.49956 | -152.24178 | 38073 ft | 373 kts | 238° |
| 2026-04-21 04:58 | 25.47125 | -152.28999 | 38072 ft | 373 kts | 238° |
| 2026-04-21 04:59 | 25.44294 | -152.33816 | 38074 ft | 374 kts | 238° |
| 2026-04-21 04:59 | 25.41459 | -152.38634 | 38074 ft | 373 kts | 238° |
| 2026-04-21 05:00 | 25.38642 | -152.43417 | 38073 ft | 373 kts | 237° |
| 2026-04-21 05:00 | 25.34389 | -152.50630 | 38073 ft | 373 kts | 237° |
| 2026-04-21 05:01 | 25.31550 | -152.55439 | 38070 ft | 373 kts | 237° |
| 2026-04-21 05:01 | 25.28704 | -152.60254 | 38074 ft | 374 kts | 237° |
| 2026-04-21 05:02 | 25.25855 | -152.65069 | 38073 ft | 374 kts | 237° |
| 2026-04-21 05:02 | 25.23007 | -152.69877 | 38073 ft | 374 kts | 237° |
| 2026-04-21 05:03 | 25.20150 | -152.74696 | 38072 ft | 374 kts | 237° |
| 2026-04-21 05:03 | 25.17295 | -152.79506 | 38073 ft | 375 kts | 237° |
| 2026-04-21 05:04 | 25.14441 | -152.84311 | 38071 ft | 374 kts | 237° |
| 2026-04-21 05:04 | 25.11586 | -152.89112 | 38074 ft | 374 kts | 237° |
| 2026-04-21 05:05 | 25.08727 | -152.93914 | 38072 ft | 374 kts | 237° |
| 2026-04-21 05:05 | 25.05870 | -152.98709 | 38073 ft | 374 kts | 237° |
| 2026-04-21 05:06 | 25.03007 | -153.03509 | 38072 ft | 374 kts | 237° |
| 2026-04-21 05:06 | 25.00144 | -153.08305 | 38072 ft | 374 kts | 237° |
| 2026-04-21 05:07 | 24.97280 | -153.13095 | 38073 ft | 374 kts | 237° |
| 2026-04-21 05:07 | 24.94434 | -153.17854 | 38073 ft | 374 kts | 237° |
| 2026-04-21 05:08 | 24.91569 | -153.22637 | 38073 ft | 374 kts | 237° |
| 2026-04-21 05:08 | 24.88702 | -153.27420 | 38070 ft | 374 kts | 237° |
| 2026-04-21 05:09 | 24.85831 | -153.32205 | 38063 ft | 374 kts | 237° |
| 2026-04-21 05:09 | 24.82961 | -153.36983 | 38064 ft | 374 kts | 237° |
| 2026-04-21 05:10 | 24.80087 | -153.41762 | 38064 ft | 374 kts | 237° |
| 2026-04-21 05:10 | 24.77213 | -153.46537 | 38063 ft | 374 kts | 237° |
| 2026-04-21 05:11 | 24.74341 | -153.51306 | 38063 ft | 374 kts | 237° |
| 2026-04-21 05:11 | 24.71462 | -153.56079 | 38063 ft | 374 kts | 237° |
| 2026-04-21 05:12 | 24.68586 | -153.60847 | 38065 ft | 374 kts | 237° |
| 2026-04-21 05:12 | 24.65705 | -153.65615 | 38064 ft | 374 kts | 237° |
| 2026-04-21 05:13 | 24.62823 | -153.70380 | 38064 ft | 374 kts | 237° |
| 2026-04-21 05:13 | 24.59940 | -153.75143 | 38064 ft | 374 kts | 237° |
| 2026-04-21 05:14 | 24.57054 | -153.79907 | 38064 ft | 374 kts | 237° |
| 2026-04-21 05:14 | 24.54168 | -153.84666 | 38064 ft | 374 kts | 237° |
| 2026-04-21 05:15 | 24.51281 | -153.89422 | 38063 ft | 375 kts | 237° |
| 2026-04-21 05:15 | 24.48402 | -153.94160 | 38064 ft | 375 kts | 237° |
| 2026-04-21 05:16 | 24.45486 | -153.98956 | 38063 ft | 375 kts | 236° |
| 2026-04-21 05:16 | 24.42608 | -154.03684 | 38065 ft | 375 kts | 237° |
| 2026-04-21 05:17 | 24.39716 | -154.08431 | 38063 ft | 374 kts | 236° |
| 2026-04-21 05:17 | 24.36820 | -154.13180 | 38063 ft | 374 kts | 236° |
| 2026-04-21 05:18 | 24.33925 | -154.17921 | 38061 ft | 374 kts | 236° |
| 2026-04-21 05:18 | 24.31024 | -154.22668 | 38060 ft | 375 kts | 236° |
| 2026-04-21 05:19 | 24.28101 | -154.27398 | 38065 ft | 375 kts | 236° |
| 2026-04-21 05:19 | 24.25179 | -154.32123 | 38063 ft | 374 kts | 236° |
| 2026-04-21 05:20 | 24.22260 | -154.36843 | 38064 ft | 374 kts | 236° |
| 2026-04-21 05:20 | 24.19337 | -154.41566 | 38065 ft | 374 kts | 236° |
| 2026-04-21 05:21 | 24.16412 | -154.46288 | 38066 ft | 377 kts | 236° |
| 2026-04-21 05:21 | 24.13441 | -154.51080 | 38063 ft | 382 kts | 236° |
| 2026-04-21 05:22 | 24.10453 | -154.55894 | 38063 ft | 382 kts | 236° |
| 2026-04-21 05:22 | 24.07482 | -154.60676 | 38064 ft | 382 kts | 236° |
| 2026-04-21 05:23 | 24.04492 | -154.65484 | 38062 ft | 382 kts | 236° |
| 2026-04-21 05:23 | 24.01501 | -154.70290 | 38064 ft | 382 kts | 236° |
| 2026-04-21 05:24 | 23.98507 | -154.75094 | 38060 ft | 383 kts | 236° |
| 2026-04-21 05:24 | 23.95494 | -154.79927 | 38063 ft | 384 kts | 236° |
| 2026-04-21 05:25 | 23.92485 | -154.84748 | 38064 ft | 384 kts | 236° |
| 2026-04-21 05:25 | 23.89469 | -154.89573 | 38063 ft | 384 kts | 236° |
| 2026-04-21 05:26 | 23.86457 | -154.94389 | 38064 ft | 384 kts | 236° |
| 2026-04-21 05:26 | 23.83440 | -154.99209 | 38065 ft | 384 kts | 236° |
| 2026-04-21 05:27 | 23.80421 | -155.04025 | 38064 ft | 384 kts | 235° |
| 2026-04-21 05:27 | 23.77405 | -155.08835 | 38068 ft | 384 kts | 235° |
| 2026-04-21 05:28 | 23.74383 | -155.13647 | 38072 ft | 384 kts | 235° |
| 2026-04-21 05:28 | 23.71377 | -155.18430 | 38072 ft | 384 kts | 235° |
| 2026-04-21 05:29 | 23.68352 | -155.23239 | 38074 ft | 384 kts | 235° |
| 2026-04-21 05:29 | 23.65329 | -155.28040 | 38072 ft | 384 kts | 235° |
| 2026-04-21 05:30 | 23.62301 | -155.32845 | 38073 ft | 384 kts | 235° |
| 2026-04-21 05:30 | 23.59277 | -155.37638 | 38075 ft | 383 kts | 235° |
| 2026-04-21 05:31 | 23.56259 | -155.42419 | 38073 ft | 383 kts | 235° |
| 2026-04-21 05:31 | 23.53239 | -155.47207 | 38072 ft | 383 kts | 236° |
| 2026-04-21 05:32 | 23.50787 | -155.52323 | 38070 ft | 384 kts | 241° |
| 2026-04-21 05:32 | 23.48389 | -155.57518 | 38074 ft | 384 kts | 242° |
| 2026-04-21 05:33 | 23.46001 | -155.62717 | 38101 ft | 384 kts | 242° |
| 2026-04-21 05:33 | 23.43610 | -155.67917 | 38141 ft | 384 kts | 242° |
| 2026-04-21 05:34 | 23.41219 | -155.73115 | 38170 ft | 384 kts | 242° |
| 2026-04-21 05:34 | 23.38825 | -155.78312 | 38181 ft | 384 kts | 242° |
| 2026-04-21 05:35 | 23.36432 | -155.83504 | 38184 ft | 384 kts | 242° |
| 2026-04-21 05:35 | 23.34030 | -155.88708 | 38185 ft | 385 kts | 242° |
| 2026-04-21 05:36 | 23.31627 | -155.93908 | 38190 ft | 385 kts | 242° |
| 2026-04-21 05:36 | 23.29220 | -155.99112 | 38200 ft | 385 kts | 241° |
| 2026-04-21 05:37 | 23.26810 | -156.04316 | 38199 ft | 385 kts | 241° |
| 2026-04-21 05:37 | 23.24401 | -156.09513 | 38191 ft | 385 kts | 241° |
| 2026-04-21 05:38 | 23.22006 | -156.14672 | 38165 ft | 385 kts | 241° |
| 2026-04-21 05:38 | 23.19592 | -156.19869 | 38120 ft | 385 kts | 241° |
| 2026-04-21 05:39 | 23.17177 | -156.25062 | 38099 ft | 385 kts | 241° |
| 2026-04-21 05:39 | 23.14759 | -156.30256 | 38088 ft | 385 kts | 241° |
| 2026-04-21 05:40 | 23.12336 | -156.35457 | 38095 ft | 386 kts | 241° |
| 2026-04-21 05:40 | 23.09908 | -156.40659 | 38093 ft | 386 kts | 241° |
| 2026-04-21 05:41 | 23.07477 | -156.45865 | 38088 ft | 386 kts | 241° |
| 2026-04-21 05:41 | 23.05047 | -156.51064 | 38081 ft | 386 kts | 241° |
| 2026-04-21 05:42 | 23.02613 | -156.56264 | 38079 ft | 386 kts | 241° |
| 2026-04-21 05:42 | 23.00177 | -156.61464 | 38081 ft | 386 kts | 241° |
| 2026-04-21 05:43 | 22.97764 | -156.66608 | 38081 ft | 386 kts | 241° |
| 2026-04-21 13:50 | 22.95651 | -156.71109 | 38080 ft | 387 kts | 241° |
| 2026-04-21 13:51 | 22.93202 | -156.76319 | 38078 ft | 388 kts | 241° |
| 2026-04-21 13:51 | 22.90752 | -156.81528 | 38058 ft | 387 kts | 241° |
| 2026-04-21 13:52 | 22.88298 | -156.86739 | 38055 ft | 388 kts | 241° |
| 2026-04-21 13:52 | 22.85845 | -156.91943 | 38055 ft | 388 kts | 241° |
| 2026-04-21 13:53 | 22.83388 | -156.97148 | 38054 ft | 388 kts | 241° |
| 2026-04-21 13:53 | 22.80930 | -157.02352 | 38056 ft | 388 kts | 241° |
| 2026-04-21 13:54 | 22.78487 | -157.07519 | 38054 ft | 388 kts | 241° |
| 2026-04-21 13:54 | 22.76024 | -157.12720 | 38055 ft | 388 kts | 240° |
| 2026-04-21 13:55 | 22.73562 | -157.17916 | 38072 ft | 388 kts | 240° |
| 2026-04-21 13:55 | 22.71094 | -157.23118 | 38072 ft | 388 kts | 240° |
| 2026-04-21 13:56 | 22.68628 | -157.28311 | 38073 ft | 388 kts | 240° |
| 2026-04-21 13:56 | 22.66159 | -157.33504 | 38073 ft | 388 kts | 240° |
| 2026-04-21 13:57 | 22.63688 | -157.38696 | 38066 ft | 388 kts | 240° |
| 2026-04-21 13:57 | 22.61215 | -157.43889 | 38065 ft | 388 kts | 240° |
| 2026-04-21 13:58 | 22.58774 | -157.49008 | 38063 ft | 380 kts | 240° |
| 2026-04-21 13:58 | 22.56364 | -157.54056 | 38065 ft | 380 kts | 240° |
| 2026-04-21 13:59 | 22.53933 | -157.59145 | 38063 ft | 380 kts | 240° |
| 2026-04-21 13:59 | 22.51500 | -157.64231 | 38063 ft | 380 kts | 240° |
| 2026-04-21 14:00 | 22.49063 | -157.69320 | 38064 ft | 381 kts | 240° |
| 2026-04-21 14:00 | 22.46627 | -157.74403 | 38062 ft | 380 kts | 240° |
| 2026-04-21 14:01 | 22.44193 | -157.79478 | 38090 ft | 381 kts | 240° |
| 2026-04-21 14:01 | 22.41768 | -157.84528 | 38071 ft | 380 kts | 240° |
| 2026-04-21 14:02 | 22.39324 | -157.89613 | 38074 ft | 382 kts | 240° |
| 2026-04-21 14:03 | 22.35651 | -157.97241 | 38073 ft | 382 kts | 240° |
| 2026-04-21 14:03 | 22.33199 | -158.02331 | 38072 ft | 382 kts | 240° |
| 2026-04-21 14:04 | 22.30746 | -158.07414 | 38072 ft | 381 kts | 240° |
| 2026-04-21 14:04 | 22.28294 | -158.12493 | 38093 ft | 382 kts | 240° |
| 2026-04-21 14:05 | 22.25838 | -158.17573 | 38087 ft | 382 kts | 240° |
| 2026-04-21 14:05 | 22.23380 | -158.22655 | 38093 ft | 382 kts | 240° |
| 2026-04-21 14:06 | 22.20921 | -158.27733 | 38089 ft | 382 kts | 240° |
| 2026-04-21 14:06 | 22.18461 | -158.32807 | 38089 ft | 381 kts | 240° |
| 2026-04-21 14:07 | 22.16004 | -158.37870 | 38088 ft | 380 kts | 240° |
| 2026-04-21 14:07 | 22.13548 | -158.42926 | 38087 ft | 381 kts | 240° |
| 2026-04-21 14:08 | 22.11104 | -158.47951 | 38088 ft | 381 kts | 240° |
| 2026-04-21 14:08 | 22.08646 | -158.53002 | 38090 ft | 380 kts | 240° |
| 2026-04-21 14:09 | 22.06185 | -158.58054 | 38082 ft | 381 kts | 240° |
| 2026-04-21 14:09 | 22.03721 | -158.63107 | 38083 ft | 380 kts | 240° |
| 2026-04-21 14:10 | 22.01258 | -158.68152 | 38080 ft | 380 kts | 240° |
| 2026-04-21 14:10 | 21.98793 | -158.73198 | 38076 ft | 381 kts | 240° |
| 2026-04-21 14:11 | 21.96308 | -158.78278 | 38076 ft | 384 kts | 240° |
| 2026-04-21 14:11 | 21.93817 | -158.83366 | 38083 ft | 384 kts | 240° |
| 2026-04-21 14:12 | 21.91329 | -158.88444 | 38079 ft | 384 kts | 240° |
| 2026-04-21 14:12 | 21.88854 | -158.93491 | 38085 ft | 384 kts | 240° |
| 2026-04-21 14:13 | 21.86360 | -158.98572 | 38073 ft | 384 kts | 240° |
| 2026-04-21 14:13 | 21.83866 | -159.03648 | 38073 ft | 384 kts | 240° |
| 2026-04-21 14:14 | 21.81371 | -159.08722 | 38074 ft | 384 kts | 240° |
| 2026-04-21 14:14 | 21.78875 | -159.13794 | 38073 ft | 384 kts | 240° |
| 2026-04-21 14:15 | 21.76375 | -159.18867 | 38073 ft | 384 kts | 240° |
| 2026-04-21 14:15 | 21.75392 | -159.21541 | 38055 ft | 387 kts | 255° |
| 2026-04-21 14:15 | 21.75148 | -159.24443 | 38098 ft | 395 kts | 267° |
| 2026-04-21 14:15 | 21.75590 | -159.27398 | 38058 ft | 409 kts | 281° |
| 2026-04-21 14:16 | 21.76865 | -159.30180 | 38058 ft | 425 kts | 297° |
| 2026-04-21 14:16 | 21.78948 | -159.32527 | 38072 ft | 446 kts | 315° |
| 2026-04-21 14:16 | 21.81770 | -159.34098 | 38058 ft | 470 kts | 336° |
| 2026-04-21 14:16 | 21.85058 | -159.34652 | 38090 ft | 489 kts | 353° |
| 2026-04-21 14:17 | 21.88498 | -159.34291 | 38079 ft | 501 kts | 4° |
| 2026-04-21 14:17 | 21.95401 | -159.33709 | 38109 ft | 496 kts | 354° |
| 2026-04-21 14:18 | 22.02050 | -159.34655 | 38044 ft | 472 kts | 328° |
| 2026-04-21 14:18 | 22.04837 | -159.36378 | 38061 ft | 454 kts | 311° |
| 2026-04-21 14:18 | 22.06981 | -159.38766 | 38057 ft | 435 kts | 295° |
| 2026-04-21 14:18 | 22.08326 | -159.41595 | 38069 ft | 415 kts | 279° |
| 2026-04-21 14:19 | 22.08787 | -159.44591 | 38067 ft | 399 kts | 263° |
| 2026-04-21 14:19 | 22.08354 | -159.47495 | 38068 ft | 389 kts | 246° |
| 2026-04-21 14:19 | 22.07088 | -159.50031 | 38064 ft | 384 kts | 230° |
| 2026-04-21 14:19 | 22.05153 | -159.52021 | 38063 ft | 387 kts | 219° |
| 2026-04-21 14:20 | 22.02986 | -159.53758 | 38096 ft | 388 kts | 219° |
| 2026-04-21 14:20 | 21.98673 | -159.57194 | 38064 ft | 384 kts | 219° |
| 2026-04-21 14:21 | 21.94403 | -159.60646 | 38056 ft | 383 kts | 224° |
| 2026-04-21 14:21 | 21.92835 | -159.62909 | 38031 ft | 380 kts | 246° |
| 2026-04-21 14:21 | 21.92346 | -159.65717 | 38046 ft | 391 kts | 268° |
| 2026-04-21 14:21 | 21.93049 | -159.68606 | 38046 ft | 414 kts | 290° |
| 2026-04-21 14:22 | 21.94618 | -159.71261 | 38067 ft | 422 kts | 293° |
| 2026-04-21 14:22 | 21.95716 | -159.74093 | 38021 ft | 400 kts | 273° |
| 2026-04-21 14:22 | 21.95815 | -159.77021 | 38078 ft | 387 kts | 256° |
| 2026-04-21 14:22 | 21.95038 | -159.79758 | 38036 ft | 380 kts | 239° |
| 2026-04-21 14:23 | 21.93424 | -159.81990 | 38050 ft | 379 kts | 222° |
| 2026-04-21 14:23 | 21.89819 | -159.86053 | 38036 ft | 380 kts | 246° |
| 2026-04-21 14:23 | 21.89360 | -159.88872 | 38047 ft | 392 kts | 269° |
| 2026-04-21 14:24 | 21.90075 | -159.91722 | 38044 ft | 414 kts | 291° |
| 2026-04-21 14:24 | 21.91835 | -159.94262 | 38079 ft | 431 kts | 302° |
| 2026-04-21 14:24 | 21.93566 | -159.96839 | 38000 ft | 415 kts | 285° |
| 2026-04-21 14:24 | 21.94219 | -159.99737 | 38029 ft | 390 kts | 263° |
| 2026-04-21 14:25 | 21.93686 | -160.02528 | 38031 ft | 379 kts | 241° |
| 2026-04-21 14:25 | 21.92098 | -160.04747 | 38052 ft | 377 kts | 221° |
| 2026-04-21 14:25 | 21.90010 | -160.06485 | 38054 ft | 382 kts | 220° |
| 2026-04-21 14:25 | 21.88206 | -160.08549 | 38040 ft | 379 kts | 239° |
| 2026-04-21 14:26 | 21.87392 | -160.11243 | 38042 ft | 387 kts | 262° |
| 2026-04-21 14:26 | 21.87509 | -160.13219 | 38043 ft | 399 kts | 277° |
| 2026-04-21 14:26 | 21.89206 | -160.16855 | 38083 ft | 423 kts | 296° |
| 2026-04-21 14:26 | 21.90606 | -160.19589 | 37996 ft | 408 kts | 278° |
| 2026-04-21 14:27 | 21.90933 | -160.21561 | 38016 ft | 391 kts | 263° |
| 2026-04-21 14:27 | 21.90439 | -160.24322 | 38036 ft | 379 kts | 242° |
| 2026-04-21 14:27 | 21.88882 | -160.26567 | 38048 ft | 378 kts | 222° |
| 2026-04-21 14:28 | 21.85288 | -160.30625 | 38033 ft | 380 kts | 247° |
| 2026-04-21 14:28 | 21.84840 | -160.33443 | 38039 ft | 393 kts | 269° |
| 2026-04-21 14:28 | 21.85588 | -160.36335 | 38040 ft | 415 kts | 291° |
| 2026-04-21 14:28 | 21.87263 | -160.38932 | 38072 ft | 426 kts | 297° |
| 2026-04-21 14:29 | 21.88569 | -160.41696 | 37993 ft | 404 kts | 275° |
| 2026-04-21 14:29 | 21.88691 | -160.44605 | 38034 ft | 384 kts | 253° |
| 2026-04-21 14:29 | 21.87661 | -160.47196 | 38034 ft | 377 kts | 231° |
| 2026-04-21 14:29 | 21.85750 | -160.49124 | 38067 ft | 380 kts | 219° |
| 2026-04-21 14:30 | 21.83792 | -160.51029 | 38019 ft | 380 kts | 234° |
| 2026-04-21 14:30 | 21.82723 | -160.53605 | 38042 ft | 384 kts | 257° |
| 2026-04-21 14:30 | 21.82807 | -160.56514 | 38041 ft | 401 kts | 279° |
| 2026-04-21 14:30 | 21.84057 | -160.59279 | 38064 ft | 422 kts | 296° |
| 2026-04-21 14:31 | 21.85638 | -160.61926 | 38016 ft | 416 kts | 285° |
| 2026-04-21 14:31 | 21.86276 | -160.64836 | 38020 ft | 390 kts | 263° |
| 2026-04-21 14:31 | 21.85721 | -160.67621 | 38034 ft | 379 kts | 240° |
| 2026-04-21 14:31 | 21.84111 | -160.69834 | 38055 ft | 378 kts | 221° |
| 2026-04-21 14:32 | 21.82050 | -160.71607 | 38047 ft | 381 kts | 225° |
| 2026-04-21 14:32 | 21.80555 | -160.73924 | 38038 ft | 381 kts | 248° |
| 2026-04-21 14:32 | 21.80154 | -160.76756 | 38044 ft | 394 kts | 270° |
| 2026-04-21 14:32 | 21.80945 | -160.79639 | 38046 ft | 417 kts | 292° |
| 2026-04-21 14:33 | 21.82574 | -160.82228 | 38074 ft | 425 kts | 295° |
| 2026-04-21 14:33 | 21.83776 | -160.85042 | 38014 ft | 403 kts | 274° |
| 2026-04-21 14:33 | 21.83790 | -160.87957 | 38047 ft | 384 kts | 251° |
| 2026-04-21 14:33 | 21.82663 | -160.90509 | 38046 ft | 378 kts | 229° |
| 2026-04-21 14:34 | 21.80707 | -160.92407 | 38078 ft | 381 kts | 219° |
| 2026-04-21 14:34 | 21.78807 | -160.94380 | 38033 ft | 381 kts | 236° |
| 2026-04-21 14:34 | 21.77843 | -160.97017 | 38043 ft | 384 kts | 259° |
| 2026-04-21 14:34 | 21.77972 | -160.99884 | 37547 ft | 394 kts | 279° |
| 2026-04-21 14:35 | 21.79191 | -161.02620 | 36609 ft | 419 kts | 296° |
| 2026-04-21 14:35 | 21.80708 | -161.05290 | 35818 ft | 411 kts | 284° |
| 2026-04-21 14:35 | 21.81221 | -161.08189 | 35330 ft | 385 kts | 261° |